sensor_id;sensor_type;location;lat;lon;timestamp;P1;durP1;ratioP1;P2;durP2;ratioP2
72497;SDS011;60522;52.536;5.702;2022-12-10T00:00:15;0.50;;;0.50;;
72497;SDS011;60522;52.536;5.702;2022-12-10T00:02:41;0.50;;;0.50;;
72497;SDS011;60522;52.536;5.702;2022-12-10T00:05:06;0.67;;;0.50;;
72497;SDS011;60522;52.536;5.702;2022-12-10T00:07:32;1.17;;;0.50;;
72497;SDS011;60522;52.536;5.702;2022-12-10T00:09:57;0.68;;;0.50;;
72497;SDS011;60522;52.536;5.702;2022-12-10T00:12:23;0.50;;;0.40;;
72497;SDS011;60522;52.536;5.702;2022-12-10T00:14:48;0.70;;;0.43;;
72497;SDS011;60522;52.536;5.702;2022-12-10T00:17:13;0.60;;;0.50;;
72497;SDS011;60522;52.536;5.702;2022-12-10T00:19:39;0.50;;;0.40;;
72497;SDS011;60522;52.536;5.702;2022-12-10T00:22:04;0.50;;;0.47;;
72497;SDS011;60522;52.536;5.702;2022-12-10T00:24:29;0.57;;;0.50;;
72497;SDS011;60522;52.536;5.702;2022-12-10T00:26:55;0.50;;;0.40;;
72497;SDS011;60522;52.536;5.702;2022-12-10T00:29:20;0.43;;;0.40;;
72497;SDS011;60522;52.536;5.702;2022-12-10T00:31:45;0.80;;;0.50;;
72497;SDS011;60522;52.536;5.702;2022-12-10T00:34:11;0.50;;;0.50;;
72497;SDS011;60522;52.536;5.702;2022-12-10T00:36:41;0.47;;;0.43;;
72497;SDS011;60522;52.536;5.702;2022-12-10T00:39:12;0.40;;;0.40;;
72497;SDS011;60522;52.536;5.702;2022-12-10T00:41:39;0.50;;;0.47;;
72497;SDS011;60522;52.536;5.702;2022-12-10T00:44:04;0.50;;;0.40;;
72497;SDS011;60522;52.536;5.702;2022-12-10T00:46:30;0.50;;;0.40;;
72497;SDS011;60522;52.536;5.702;2022-12-10T00:48:57;0.50;;;0.40;;
72497;SDS011;60522;52.536;5.702;2022-12-10T00:51:23;0.50;;;0.40;;
72497;SDS011;60522;52.536;5.702;2022-12-10T00:53:51;0.80;;;0.47;;
72497;SDS011;60522;52.536;5.702;2022-12-10T00:56:18;0.52;;;0.40;;
72497;SDS011;60522;52.536;5.702;2022-12-10T00:58:46;0.50;;;0.40;;
72497;SDS011;60522;52.536;5.702;2022-12-10T01:01:13;0.40;;;0.40;;
72497;SDS011;60522;52.536;5.702;2022-12-10T01:03:52;0.50;;;0.45;;
72497;SDS011;60522;52.536;5.702;2022-12-10T01:06:23;0.60;;;0.50;;
72497;SDS011;60522;52.536;5.702;2022-12-10T01:08:51;0.40;;;0.40;;
72497;SDS011;60522;52.536;5.702;2022-12-10T01:11:19;0.50;;;0.50;;
72497;SDS011;60522;52.536;5.702;2022-12-10T01:13:46;0.50;;;0.47;;
72497;SDS011;60522;52.536;5.702;2022-12-10T01:16:14;0.82;;;0.50;;
72497;SDS011;60522;52.536;5.702;2022-12-10T01:18:42;0.43;;;0.43;;
72497;SDS011;60522;52.536;5.702;2022-12-10T01:21:11;0.65;;;0.50;;
72497;SDS011;60522;52.536;5.702;2022-12-10T01:23:39;0.77;;;0.40;;
72497;SDS011;60522;52.536;5.702;2022-12-10T01:26:07;0.50;;;0.40;;
72497;SDS011;60522;52.536;5.702;2022-12-10T01:28:35;0.70;;;0.50;;
72497;SDS011;60522;52.536;5.702;2022-12-10T01:31:03;0.50;;;0.40;;
72497;SDS011;60522;52.536;5.702;2022-12-10T01:33:30;0.50;;;0.50;;
72497;SDS011;60522;52.536;5.702;2022-12-10T01:35:57;0.40;;;0.40;;
72497;SDS011;60522;52.536;5.702;2022-12-10T01:38:27;0.52;;;0.47;;
72497;SDS011;60522;52.536;5.702;2022-12-10T01:40:52;0.43;;;0.40;;
72497;SDS011;60522;52.536;5.702;2022-12-10T01:43:18;0.50;;;0.40;;
72497;SDS011;60522;52.536;5.702;2022-12-10T01:45:43;0.43;;;0.40;;
72497;SDS011;60522;52.536;5.702;2022-12-10T01:48:08;0.60;;;0.40;;
72497;SDS011;60522;52.536;5.702;2022-12-10T01:50:34;0.50;;;0.40;;
72497;SDS011;60522;52.536;5.702;2022-12-10T01:52:59;0.65;;;0.50;;
72497;SDS011;60522;52.536;5.702;2022-12-10T01:55:42;0.50;;;0.40;;
72497;SDS011;60522;52.536;5.702;2022-12-10T01:58:08;0.70;;;0.50;;
72497;SDS011;60522;52.536;5.702;2022-12-10T02:00:36;0.50;;;0.40;;
72497;SDS011;60522;52.536;5.702;2022-12-10T02:03:17;0.65;;;0.40;;
72497;SDS011;60522;52.536;5.702;2022-12-10T02:05:56;0.30;;;0.30;;
72497;SDS011;60522;52.536;5.702;2022-12-10T02:08:33;0.50;;;0.43;;
72497;SDS011;60522;52.536;5.702;2022-12-10T02:11:14;0.40;;;0.40;;
72497;SDS011;60522;52.536;5.702;2022-12-10T02:14:01;0.50;;;0.40;;
72497;SDS011;60522;52.536;5.702;2022-12-10T02:16:47;0.40;;;0.40;;
72497;SDS011;60522;52.536;5.702;2022-12-10T02:22:17;0.50;;;0.40;;
72497;SDS011;60522;52.536;5.702;2022-12-10T02:24:44;0.50;;;0.40;;
72497;SDS011;60522;52.536;5.702;2022-12-10T02:27:17;0.70;;;0.40;;
72497;SDS011;60522;52.536;5.702;2022-12-10T02:29:51;1.20;;;0.40;;
72497;SDS011;60522;52.536;5.702;2022-12-10T02:32:22;0.43;;;0.40;;
72497;SDS011;60522;52.536;5.702;2022-12-10T02:34:55;0.60;;;0.40;;
72497;SDS011;60522;52.536;5.702;2022-12-10T02:37:25;0.60;;;0.40;;
72497;SDS011;60522;52.536;5.702;2022-12-10T02:39:57;0.50;;;0.40;;
72497;SDS011;60522;52.536;5.702;2022-12-10T02:42:25;0.50;;;0.40;;
72497;SDS011;60522;52.536;5.702;2022-12-10T02:44:53;0.50;;;0.40;;
72497;SDS011;60522;52.536;5.702;2022-12-10T02:47:20;0.50;;;0.40;;
72497;SDS011;60522;52.536;5.702;2022-12-10T02:49:47;0.50;;;0.40;;
72497;SDS011;60522;52.536;5.702;2022-12-10T02:52:15;0.40;;;0.40;;
72497;SDS011;60522;52.536;5.702;2022-12-10T02:54:44;0.50;;;0.50;;
72497;SDS011;60522;52.536;5.702;2022-12-10T03:04:57;0.40;;;0.40;;
72497;SDS011;60522;52.536;5.702;2022-12-10T03:07:32;0.40;;;0.40;;
72497;SDS011;60522;52.536;5.702;2022-12-10T03:10:02;0.50;;;0.50;;
72497;SDS011;60522;52.536;5.702;2022-12-10T03:12:47;0.40;;;0.40;;
72497;SDS011;60522;52.536;5.702;2022-12-10T03:15:15;0.50;;;0.40;;
72497;SDS011;60522;52.536;5.702;2022-12-10T03:17:42;0.40;;;0.40;;
72497;SDS011;60522;52.536;5.702;2022-12-10T03:20:11;0.40;;;0.40;;
72497;SDS011;60522;52.536;5.702;2022-12-10T03:22:39;0.40;;;0.40;;
72497;SDS011;60522;52.536;5.702;2022-12-10T03:25:08;0.40;;;0.40;;
72497;SDS011;60522;52.536;5.702;2022-12-10T03:27:36;0.60;;;0.50;;
72497;SDS011;60522;52.536;5.702;2022-12-10T03:30:06;0.52;;;0.50;;
72497;SDS011;60522;52.536;5.702;2022-12-10T03:32:31;0.43;;;0.40;;
72497;SDS011;60522;52.536;5.702;2022-12-10T03:34:58;0.50;;;0.40;;
72497;SDS011;60522;52.536;5.702;2022-12-10T03:37:25;0.50;;;0.40;;
72497;SDS011;60522;52.536;5.702;2022-12-10T03:39:53;0.50;;;0.50;;
72497;SDS011;60522;52.536;5.702;2022-12-10T03:42:19;0.40;;;0.40;;
72497;SDS011;60522;52.536;5.702;2022-12-10T03:44:45;0.50;;;0.40;;
72497;SDS011;60522;52.536;5.702;2022-12-10T03:47:14;0.50;;;0.45;;
72497;SDS011;60522;52.536;5.702;2022-12-10T03:49:40;0.50;;;0.40;;
72497;SDS011;60522;52.536;5.702;2022-12-10T03:52:06;0.60;;;0.50;;
72497;SDS011;60522;52.536;5.702;2022-12-10T03:54:31;0.40;;;0.40;;
72497;SDS011;60522;52.536;5.702;2022-12-10T03:56:57;0.40;;;0.40;;
72497;SDS011;60522;52.536;5.702;2022-12-10T03:59:22;0.40;;;0.40;;
72497;SDS011;60522;52.536;5.702;2022-12-10T04:01:47;0.43;;;0.40;;
72497;SDS011;60522;52.536;5.702;2022-12-10T04:04:13;0.40;;;0.30;;
72497;SDS011;60522;52.536;5.702;2022-12-10T04:06:39;0.50;;;0.40;;
72497;SDS011;60522;52.536;5.702;2022-12-10T04:09:05;0.50;;;0.50;;
72497;SDS011;60522;52.536;5.702;2022-12-10T04:11:31;0.67;;;0.40;;
72497;SDS011;60522;52.536;5.702;2022-12-10T04:13:56;0.40;;;0.40;;
72497;SDS011;60522;52.536;5.702;2022-12-10T04:16:40;0.40;;;0.40;;
72497;SDS011;60522;52.536;5.702;2022-12-10T04:21:33;0.40;;;0.40;;
72497;SDS011;60522;52.536;5.702;2022-12-10T04:24:19;0.32;;;0.32;;
72497;SDS011;60522;52.536;5.702;2022-12-10T04:27:06;0.47;;;0.40;;
72497;SDS011;60522;52.536;5.702;2022-12-10T04:29:34;0.43;;;0.40;;
72497;SDS011;60522;52.536;5.702;2022-12-10T04:32:00;0.50;;;0.40;;
72497;SDS011;60522;52.536;5.702;2022-12-10T04:34:25;0.40;;;0.40;;
72497;SDS011;60522;52.536;5.702;2022-12-10T04:36:51;0.40;;;0.30;;
72497;SDS011;60522;52.536;5.702;2022-12-10T04:39:16;0.43;;;0.40;;
72497;SDS011;60522;52.536;5.702;2022-12-10T04:41:44;0.40;;;0.30;;
72497;SDS011;60522;52.536;5.702;2022-12-10T04:44:13;0.50;;;0.40;;
72497;SDS011;60522;52.536;5.702;2022-12-10T04:46:39;0.57;;;0.40;;
72497;SDS011;60522;52.536;5.702;2022-12-10T04:49:05;0.40;;;0.40;;
72497;SDS011;60522;52.536;5.702;2022-12-10T04:51:31;0.47;;;0.40;;
72497;SDS011;60522;52.536;5.702;2022-12-10T04:53:56;0.50;;;0.50;;
72497;SDS011;60522;52.536;5.702;2022-12-10T04:56:22;0.60;;;0.50;;
72497;SDS011;60522;52.536;5.702;2022-12-10T04:58:47;0.40;;;0.40;;
72497;SDS011;60522;52.536;5.702;2022-12-10T05:01:13;0.60;;;0.50;;
72497;SDS011;60522;52.536;5.702;2022-12-10T05:03:39;0.40;;;0.40;;
72497;SDS011;60522;52.536;5.702;2022-12-10T05:06:06;0.40;;;0.38;;
72497;SDS011;60522;52.536;5.702;2022-12-10T05:08:34;0.40;;;0.40;;
72497;SDS011;60522;52.536;5.702;2022-12-10T05:11:04;0.40;;;0.40;;
72497;SDS011;60522;52.536;5.702;2022-12-10T05:13:35;0.38;;;0.35;;
72497;SDS011;60522;52.536;5.702;2022-12-10T05:16:01;0.50;;;0.47;;
72497;SDS011;60522;52.536;5.702;2022-12-10T05:18:28;0.50;;;0.40;;
72497;SDS011;60522;52.536;5.702;2022-12-10T05:20:53;0.40;;;0.40;;
72497;SDS011;60522;52.536;5.702;2022-12-10T05:23:19;0.40;;;0.40;;
72497;SDS011;60522;52.536;5.702;2022-12-10T05:25:59;0.40;;;0.30;;
72497;SDS011;60522;52.536;5.702;2022-12-10T05:28:46;0.40;;;0.38;;
72497;SDS011;60522;52.536;5.702;2022-12-10T05:31:18;0.52;;;0.47;;
72497;SDS011;60522;52.536;5.702;2022-12-10T05:33:48;0.50;;;0.40;;
72497;SDS011;60522;52.536;5.702;2022-12-10T05:36:14;0.57;;;0.50;;
72497;SDS011;60522;52.536;5.702;2022-12-10T05:38:41;0.40;;;0.40;;
72497;SDS011;60522;52.536;5.702;2022-12-10T05:41:08;0.50;;;0.40;;
72497;SDS011;60522;52.536;5.702;2022-12-10T05:43:37;0.40;;;0.40;;
72497;SDS011;60522;52.536;5.702;2022-12-10T05:46:07;0.47;;;0.47;;
72497;SDS011;60522;52.536;5.702;2022-12-10T05:48:35;0.50;;;0.40;;
72497;SDS011;60522;52.536;5.702;2022-12-10T05:51:07;0.50;;;0.40;;
72497;SDS011;60522;52.536;5.702;2022-12-10T05:53:35;0.50;;;0.45;;
72497;SDS011;60522;52.536;5.702;2022-12-10T05:56:01;0.50;;;0.40;;
72497;SDS011;60522;52.536;5.702;2022-12-10T05:58:28;0.40;;;0.40;;
72497;SDS011;60522;52.536;5.702;2022-12-10T06:00:54;0.30;;;0.30;;
72497;SDS011;60522;52.536;5.702;2022-12-10T06:03:23;0.43;;;0.43;;
72497;SDS011;60522;52.536;5.702;2022-12-10T06:05:49;0.40;;;0.40;;
72497;SDS011;60522;52.536;5.702;2022-12-10T06:08:14;0.40;;;0.40;;
72497;SDS011;60522;52.536;5.702;2022-12-10T06:10:40;0.50;;;0.50;;
72497;SDS011;60522;52.536;5.702;2022-12-10T06:13:05;0.40;;;0.30;;
72497;SDS011;60522;52.536;5.702;2022-12-10T06:15:31;0.40;;;0.40;;
72497;SDS011;60522;52.536;5.702;2022-12-10T06:17:57;0.65;;;0.40;;
72497;SDS011;60522;52.536;5.702;2022-12-10T06:20:24;0.50;;;0.40;;
72497;SDS011;60522;52.536;5.702;2022-12-10T06:22:50;0.50;;;0.40;;
72497;SDS011;60522;52.536;5.702;2022-12-10T06:25:16;0.40;;;0.40;;
72497;SDS011;60522;52.536;5.702;2022-12-10T06:27:42;0.50;;;0.40;;
72497;SDS011;60522;52.536;5.702;2022-12-10T06:30:07;0.35;;;0.35;;
72497;SDS011;60522;52.536;5.702;2022-12-10T06:32:33;0.50;;;0.40;;
72497;SDS011;60522;52.536;5.702;2022-12-10T06:34:59;0.40;;;0.40;;
72497;SDS011;60522;52.536;5.702;2022-12-10T06:37:24;0.30;;;0.30;;
72497;SDS011;60522;52.536;5.702;2022-12-10T06:39:50;0.50;;;0.50;;
72497;SDS011;60522;52.536;5.702;2022-12-10T06:42:17;0.40;;;0.40;;
72497;SDS011;60522;52.536;5.702;2022-12-10T06:44:43;0.40;;;0.40;;
72497;SDS011;60522;52.536;5.702;2022-12-10T06:47:08;0.30;;;0.30;;
72497;SDS011;60522;52.536;5.702;2022-12-10T06:49:34;0.47;;;0.40;;
72497;SDS011;60522;52.536;5.702;2022-12-10T06:51:59;0.43;;;0.40;;
72497;SDS011;60522;52.536;5.702;2022-12-10T06:54:24;0.40;;;0.40;;
72497;SDS011;60522;52.536;5.702;2022-12-10T06:56:50;0.40;;;0.40;;
72497;SDS011;60522;52.536;5.702;2022-12-10T06:59:15;0.73;;;0.47;;
72497;SDS011;60522;52.536;5.702;2022-12-10T07:01:41;0.47;;;0.40;;
72497;SDS011;60522;52.536;5.702;2022-12-10T07:04:06;0.40;;;0.30;;
72497;SDS011;60522;52.536;5.702;2022-12-10T07:06:33;0.50;;;0.50;;
72497;SDS011;60522;52.536;5.702;2022-12-10T07:08:58;0.40;;;0.40;;
72497;SDS011;60522;52.536;5.702;2022-12-10T07:11:24;0.43;;;0.43;;
72497;SDS011;60522;52.536;5.702;2022-12-10T07:13:50;0.40;;;0.40;;
72497;SDS011;60522;52.536;5.702;2022-12-10T07:16:18;0.43;;;0.40;;
72497;SDS011;60522;52.536;5.702;2022-12-10T07:18:45;0.60;;;0.60;;
72497;SDS011;60522;52.536;5.702;2022-12-10T07:21:13;0.60;;;0.45;;
72497;SDS011;60522;52.536;5.702;2022-12-10T07:23:50;0.45;;;0.40;;
72497;SDS011;60522;52.536;5.702;2022-12-10T07:26:16;0.40;;;0.40;;
72497;SDS011;60522;52.536;5.702;2022-12-10T07:28:42;0.40;;;0.30;;
72497;SDS011;60522;52.536;5.702;2022-12-10T07:31:08;0.63;;;0.40;;
72497;SDS011;60522;52.536;5.702;2022-12-10T07:33:34;0.47;;;0.40;;
72497;SDS011;60522;52.536;5.702;2022-12-10T07:36:03;0.40;;;0.30;;
72497;SDS011;60522;52.536;5.702;2022-12-10T07:38:29;0.50;;;0.45;;
72497;SDS011;60522;52.536;5.702;2022-12-10T07:40:55;0.30;;;0.30;;
72497;SDS011;60522;52.536;5.702;2022-12-10T07:43:21;0.40;;;0.40;;
72497;SDS011;60522;52.536;5.702;2022-12-10T07:45:46;0.50;;;0.40;;
72497;SDS011;60522;52.536;5.702;2022-12-10T07:48:12;0.50;;;0.47;;
72497;SDS011;60522;52.536;5.702;2022-12-10T07:50:37;0.40;;;0.40;;
72497;SDS011;60522;52.536;5.702;2022-12-10T07:53:02;0.40;;;0.40;;
72497;SDS011;60522;52.536;5.702;2022-12-10T07:55:28;0.43;;;0.40;;
72497;SDS011;60522;52.536;5.702;2022-12-10T07:57:53;0.40;;;0.35;;
72497;SDS011;60522;52.536;5.702;2022-12-10T08:00:18;0.40;;;0.30;;
72497;SDS011;60522;52.536;5.702;2022-12-10T08:02:44;0.40;;;0.33;;
72497;SDS011;60522;52.536;5.702;2022-12-10T08:05:09;0.40;;;0.40;;
72497;SDS011;60522;52.536;5.702;2022-12-10T08:07:35;0.40;;;0.40;;
72497;SDS011;60522;52.536;5.702;2022-12-10T08:10:01;0.40;;;0.40;;
72497;SDS011;60522;52.536;5.702;2022-12-10T08:12:26;0.70;;;0.40;;
72497;SDS011;60522;52.536;5.702;2022-12-10T08:14:52;0.40;;;0.40;;
72497;SDS011;60522;52.536;5.702;2022-12-10T08:17:17;0.40;;;0.40;;
72497;SDS011;60522;52.536;5.702;2022-12-10T08:19:42;0.40;;;0.40;;
72497;SDS011;60522;52.536;5.702;2022-12-10T08:22:08;0.43;;;0.40;;
72497;SDS011;60522;52.536;5.702;2022-12-10T08:24:34;0.60;;;0.45;;
72497;SDS011;60522;52.536;5.702;2022-12-10T08:26:59;0.50;;;0.50;;
72497;SDS011;60522;52.536;5.702;2022-12-10T08:29:24;0.40;;;0.40;;
72497;SDS011;60522;52.536;5.702;2022-12-10T08:31:50;0.50;;;0.50;;
72497;SDS011;60522;52.536;5.702;2022-12-10T08:34:16;0.40;;;0.40;;
72497;SDS011;60522;52.536;5.702;2022-12-10T08:36:43;0.50;;;0.40;;
72497;SDS011;60522;52.536;5.702;2022-12-10T08:39:10;0.40;;;0.40;;
72497;SDS011;60522;52.536;5.702;2022-12-10T08:41:40;0.40;;;0.40;;
72497;SDS011;60522;52.536;5.702;2022-12-10T08:44:06;0.50;;;0.50;;
72497;SDS011;60522;52.536;5.702;2022-12-10T08:46:31;0.43;;;0.40;;
72497;SDS011;60522;52.536;5.702;2022-12-10T08:48:57;0.50;;;0.40;;
72497;SDS011;60522;52.536;5.702;2022-12-10T08:51:22;0.50;;;0.47;;
72497;SDS011;60522;52.536;5.702;2022-12-10T08:53:48;0.75;;;0.40;;
72497;SDS011;60522;52.536;5.702;2022-12-10T08:56:13;0.50;;;0.40;;
72497;SDS011;60522;52.536;5.702;2022-12-10T08:58:39;0.40;;;0.40;;
72497;SDS011;60522;52.536;5.702;2022-12-10T09:01:09;0.50;;;0.40;;
72497;SDS011;60522;52.536;5.702;2022-12-10T09:03:37;0.50;;;0.43;;
72497;SDS011;60522;52.536;5.702;2022-12-10T09:06:06;0.50;;;0.40;;
72497;SDS011;60522;52.536;5.702;2022-12-10T09:08:40;0.50;;;0.40;;
72497;SDS011;60522;52.536;5.702;2022-12-10T09:11:13;0.60;;;0.47;;
72497;SDS011;60522;52.536;5.702;2022-12-10T09:13:41;0.70;;;0.40;;
72497;SDS011;60522;52.536;5.702;2022-12-10T09:16:07;0.65;;;0.40;;
72497;SDS011;60522;52.536;5.702;2022-12-10T09:18:33;0.40;;;0.40;;
72497;SDS011;60522;52.536;5.702;2022-12-10T09:20:58;0.70;;;0.50;;
72497;SDS011;60522;52.536;5.702;2022-12-10T09:23:24;0.40;;;0.40;;
72497;SDS011;60522;52.536;5.702;2022-12-10T09:25:49;0.50;;;0.50;;
72497;SDS011;60522;52.536;5.702;2022-12-10T09:28:15;0.45;;;0.30;;
72497;SDS011;60522;52.536;5.702;2022-12-10T09:30:40;0.60;;;0.50;;
72497;SDS011;60522;52.536;5.702;2022-12-10T09:33:06;0.40;;;0.40;;
72497;SDS011;60522;52.536;5.702;2022-12-10T09:35:31;0.50;;;0.40;;
72497;SDS011;60522;52.536;5.702;2022-12-10T09:37:57;0.50;;;0.40;;
72497;SDS011;60522;52.536;5.702;2022-12-10T09:40:29;0.40;;;0.30;;
72497;SDS011;60522;52.536;5.702;2022-12-10T09:45:47;0.50;;;0.40;;
72497;SDS011;60522;52.536;5.702;2022-12-10T09:48:21;0.40;;;0.35;;
72497;SDS011;60522;52.536;5.702;2022-12-10T09:50:57;0.63;;;0.50;;
72497;SDS011;60522;52.536;5.702;2022-12-10T09:53:55;2.38;;;0.40;;
72497;SDS011;60522;52.536;5.702;2022-12-10T09:56:35;0.60;;;0.45;;
72497;SDS011;60522;52.536;5.702;2022-12-10T10:04:47;0.40;;;0.30;;
72497;SDS011;60522;52.536;5.702;2022-12-10T10:07:21;0.40;;;0.40;;
72497;SDS011;60522;52.536;5.702;2022-12-10T10:09:50;0.55;;;0.50;;
72497;SDS011;60522;52.536;5.702;2022-12-10T10:12:20;0.60;;;0.40;;
72497;SDS011;60522;52.536;5.702;2022-12-10T10:14:46;0.50;;;0.40;;
72497;SDS011;60522;52.536;5.702;2022-12-10T10:17:15;0.50;;;0.40;;
72497;SDS011;60522;52.536;5.702;2022-12-10T10:19:45;0.45;;;0.40;;
72497;SDS011;60522;52.536;5.702;2022-12-10T10:22:10;0.50;;;0.40;;
72497;SDS011;60522;52.536;5.702;2022-12-10T10:24:37;0.65;;;0.47;;
72497;SDS011;60522;52.536;5.702;2022-12-10T10:27:18;0.50;;;0.40;;
72497;SDS011;60522;52.536;5.702;2022-12-10T10:29:49;0.50;;;0.47;;
72497;SDS011;60522;52.536;5.702;2022-12-10T10:35:21;0.60;;;0.45;;
72497;SDS011;60522;52.536;5.702;2022-12-10T10:37:48;0.45;;;0.40;;
72497;SDS011;60522;52.536;5.702;2022-12-10T10:40:21;0.50;;;0.40;;
72497;SDS011;60522;52.536;5.702;2022-12-10T10:42:57;0.43;;;0.40;;
72497;SDS011;60522;52.536;5.702;2022-12-10T10:50:41;0.63;;;0.40;;
72497;SDS011;60522;52.536;5.702;2022-12-10T10:53:29;0.60;;;0.43;;
72497;SDS011;60522;52.536;5.702;2022-12-10T10:55:58;0.50;;;0.40;;
72497;SDS011;60522;52.536;5.702;2022-12-10T10:58:30;1.00;;;0.50;;
72497;SDS011;60522;52.536;5.702;2022-12-10T11:01:14;0.70;;;0.50;;
72497;SDS011;60522;52.536;5.702;2022-12-10T11:03:44;0.80;;;0.60;;
72497;SDS011;60522;52.536;5.702;2022-12-10T11:06:15;0.70;;;0.50;;
72497;SDS011;60522;52.536;5.702;2022-12-10T11:08:42;0.98;;;0.60;;
72497;SDS011;60522;52.536;5.702;2022-12-10T11:11:16;0.82;;;0.63;;
72497;SDS011;60522;52.536;5.702;2022-12-10T11:17:01;0.82;;;0.60;;
72497;SDS011;60522;52.536;5.702;2022-12-10T11:20:00;0.80;;;0.50;;
72497;SDS011;60522;52.536;5.702;2022-12-10T11:22:40;1.00;;;0.50;;
72497;SDS011;60522;52.536;5.702;2022-12-10T11:25:14;0.90;;;0.70;;
72497;SDS011;60522;52.536;5.702;2022-12-10T11:30:25;1.05;;;0.50;;
72497;SDS011;60522;52.536;5.702;2022-12-10T11:35:53;1.33;;;0.50;;
72497;SDS011;60522;52.536;5.702;2022-12-10T11:38:23;0.90;;;0.60;;
72497;SDS011;60522;52.536;5.702;2022-12-10T11:46:23;0.65;;;0.50;;
72497;SDS011;60522;52.536;5.702;2022-12-10T11:51:35;1.10;;;0.60;;
72497;SDS011;60522;52.536;5.702;2022-12-10T12:02:18;1.70;;;0.98;;
72497;SDS011;60522;52.536;5.702;2022-12-10T12:07:31;1.60;;;0.80;;
72497;SDS011;60522;52.536;5.702;2022-12-10T12:10:15;1.20;;;0.60;;
72497;SDS011;60522;52.536;5.702;2022-12-10T12:12:51;1.88;;;0.77;;
72497;SDS011;60522;52.536;5.702;2022-12-10T12:18:02;1.20;;;0.77;;
72497;SDS011;60522;52.536;5.702;2022-12-10T12:20:37;2.90;;;1.20;;
72497;SDS011;60522;52.536;5.702;2022-12-10T12:23:14;1.10;;;0.63;;
72497;SDS011;60522;52.536;5.702;2022-12-10T12:25:46;2.55;;;1.10;;
72497;SDS011;60522;52.536;5.702;2022-12-10T12:28:25;2.00;;;0.85;;
72497;SDS011;60522;52.536;5.702;2022-12-10T12:30:59;2.45;;;1.42;;
72497;SDS011;60522;52.536;5.702;2022-12-10T12:33:41;1.87;;;0.90;;
72497;SDS011;60522;52.536;5.702;2022-12-10T12:36:17;2.05;;;1.02;;
72497;SDS011;60522;52.536;5.702;2022-12-10T12:50:02;2.10;;;0.93;;
72497;SDS011;60522;52.536;5.702;2022-12-10T12:52:36;2.17;;;1.00;;
72497;SDS011;60522;52.536;5.702;2022-12-10T12:55:17;1.90;;;0.95;;
72497;SDS011;60522;52.536;5.702;2022-12-10T12:57:49;1.83;;;0.98;;
72497;SDS011;60522;52.536;5.702;2022-12-10T13:00:21;1.77;;;0.83;;
72497;SDS011;60522;52.536;5.702;2022-12-10T13:10:59;2.03;;;1.00;;
72497;SDS011;60522;52.536;5.702;2022-12-10T13:13:41;2.10;;;1.00;;
72497;SDS011;60522;52.536;5.702;2022-12-10T13:27:04;2.40;;;1.10;;
72497;SDS011;60522;52.536;5.702;2022-12-10T13:43:40;2.00;;;1.10;;
72497;SDS011;60522;52.536;5.702;2022-12-10T13:46:28;2.42;;;1.20;;
72497;SDS011;60522;52.536;5.702;2022-12-10T13:49:00;2.42;;;1.20;;
72497;SDS011;60522;52.536;5.702;2022-12-10T14:05:37;2.10;;;1.00;;
72497;SDS011;60522;52.536;5.702;2022-12-10T14:08:16;1.08;;;0.70;;
72497;SDS011;60522;52.536;5.702;2022-12-10T14:10:44;1.60;;;0.90;;
72497;SDS011;60522;52.536;5.702;2022-12-10T14:13:11;2.33;;;1.23;;
72497;SDS011;60522;52.536;5.702;2022-12-10T14:15:51;1.60;;;1.00;;
72497;SDS011;60522;52.536;5.702;2022-12-10T14:18:20;2.05;;;0.90;;
72497;SDS011;60522;52.536;5.702;2022-12-10T14:20:49;2.45;;;1.27;;
72497;SDS011;60522;52.536;5.702;2022-12-10T14:28:41;1.90;;;0.93;;
72497;SDS011;60522;52.536;5.702;2022-12-10T14:31:11;1.80;;;0.95;;
72497;SDS011;60522;52.536;5.702;2022-12-10T14:33:39;1.92;;;1.02;;
72497;SDS011;60522;52.536;5.702;2022-12-10T14:36:05;1.23;;;0.70;;
72497;SDS011;60522;52.536;5.702;2022-12-10T14:38:31;2.15;;;1.13;;
72497;SDS011;60522;52.536;5.702;2022-12-10T14:40:59;1.60;;;0.80;;
72497;SDS011;60522;52.536;5.702;2022-12-10T14:43:32;1.52;;;0.82;;
72497;SDS011;60522;52.536;5.702;2022-12-10T14:46:02;1.58;;;0.90;;
72497;SDS011;60522;52.536;5.702;2022-12-10T14:48:29;1.48;;;0.88;;
72497;SDS011;60522;52.536;5.702;2022-12-10T14:51:04;1.67;;;0.90;;
72497;SDS011;60522;52.536;5.702;2022-12-10T14:53:36;1.55;;;0.88;;
72497;SDS011;60522;52.536;5.702;2022-12-10T14:56:02;1.50;;;0.87;;
72497;SDS011;60522;52.536;5.702;2022-12-10T14:58:36;1.50;;;0.88;;
72497;SDS011;60522;52.536;5.702;2022-12-10T15:01:02;1.80;;;0.80;;
72497;SDS011;60522;52.536;5.702;2022-12-10T15:03:30;1.20;;;0.60;;
72497;SDS011;60522;52.536;5.702;2022-12-10T15:06:07;1.53;;;0.83;;
72497;SDS011;60522;52.536;5.702;2022-12-10T15:08:34;1.55;;;0.85;;
72497;SDS011;60522;52.536;5.702;2022-12-10T15:11:00;1.40;;;0.85;;
72497;SDS011;60522;52.536;5.702;2022-12-10T15:16:30;1.95;;;0.88;;
72497;SDS011;60522;52.536;5.702;2022-12-10T15:19:05;1.30;;;0.80;;
72497;SDS011;60522;52.536;5.702;2022-12-10T15:21:32;1.77;;;0.80;;
72497;SDS011;60522;52.536;5.702;2022-12-10T15:26:47;1.80;;;1.08;;
72497;SDS011;60522;52.536;5.702;2022-12-10T15:32:34;1.35;;;0.85;;
72497;SDS011;60522;52.536;5.702;2022-12-10T15:34:48;1.52;;;0.70;;
72497;SDS011;60522;52.536;5.702;2022-12-10T15:37:22;1.60;;;0.88;;
72497;SDS011;60522;52.536;5.702;2022-12-10T15:39:54;1.70;;;0.80;;
72497;SDS011;60522;52.536;5.702;2022-12-10T15:45:23;1.30;;;0.60;;
72497;SDS011;60522;52.536;5.702;2022-12-10T15:47:59;1.52;;;0.80;;
72497;SDS011;60522;52.536;5.702;2022-12-10T15:50:24;1.30;;;0.80;;
72497;SDS011;60522;52.536;5.702;2022-12-10T15:52:51;1.65;;;0.80;;
72497;SDS011;60522;52.536;5.702;2022-12-10T15:55:16;1.50;;;0.80;;
72497;SDS011;60522;52.536;5.702;2022-12-10T15:57:42;1.45;;;0.80;;
72497;SDS011;60522;52.536;5.702;2022-12-10T16:00:15;1.65;;;1.08;;
72497;SDS011;60522;52.536;5.702;2022-12-10T16:05:26;1.05;;;0.70;;
72497;SDS011;60522;52.536;5.702;2022-12-10T16:07:54;1.40;;;0.70;;
72497;SDS011;60522;52.536;5.702;2022-12-10T16:10:22;1.45;;;0.80;;
72497;SDS011;60522;52.536;5.702;2022-12-10T16:12:49;1.65;;;0.93;;
72497;SDS011;60522;52.536;5.702;2022-12-10T16:15:24;1.17;;;0.70;;
72497;SDS011;60522;52.536;5.702;2022-12-10T16:17:52;1.17;;;0.70;;
72497;SDS011;60522;52.536;5.702;2022-12-10T16:20:22;1.30;;;0.88;;
72497;SDS011;60522;52.536;5.702;2022-12-10T16:22:54;1.60;;;1.00;;
72497;SDS011;60522;52.536;5.702;2022-12-10T16:25:21;1.25;;;0.70;;
72497;SDS011;60522;52.536;5.702;2022-12-10T16:27:48;0.95;;;0.80;;
72497;SDS011;60522;52.536;5.702;2022-12-10T16:33:05;1.00;;;0.68;;
72497;SDS011;60522;52.536;5.702;2022-12-10T16:35:31;1.00;;;0.70;;
72497;SDS011;60522;52.536;5.702;2022-12-10T16:37:56;0.98;;;0.60;;
72497;SDS011;60522;52.536;5.702;2022-12-10T16:40:23;0.98;;;0.60;;
72497;SDS011;60522;52.536;5.702;2022-12-10T16:42:50;1.30;;;0.63;;
72497;SDS011;60522;52.536;5.702;2022-12-10T16:47:46;1.50;;;0.80;;
72497;SDS011;60522;52.536;5.702;2022-12-10T16:50:12;1.83;;;1.00;;
72497;SDS011;60522;52.536;5.702;2022-12-10T16:52:39;1.20;;;0.70;;
72497;SDS011;60522;52.536;5.702;2022-12-10T16:55:05;0.95;;;0.60;;
72497;SDS011;60522;52.536;5.702;2022-12-10T16:57:32;1.20;;;0.70;;
72497;SDS011;60522;52.536;5.702;2022-12-10T16:59:58;0.90;;;0.60;;
72497;SDS011;60522;52.536;5.702;2022-12-10T17:02:23;0.93;;;0.60;;
72497;SDS011;60522;52.536;5.702;2022-12-10T17:04:49;0.90;;;0.67;;
72497;SDS011;60522;52.536;5.702;2022-12-10T17:07:15;1.23;;;0.80;;
72497;SDS011;60522;52.536;5.702;2022-12-10T17:09:40;1.40;;;0.63;;
72497;SDS011;60522;52.536;5.702;2022-12-10T17:12:07;0.80;;;0.68;;
72497;SDS011;60522;52.536;5.702;2022-12-10T17:14:37;1.27;;;0.70;;
72497;SDS011;60522;52.536;5.702;2022-12-10T17:17:04;1.15;;;0.70;;
72497;SDS011;60522;52.536;5.702;2022-12-10T17:19:32;1.70;;;0.98;;
72497;SDS011;60522;52.536;5.702;2022-12-10T17:22:00;1.35;;;0.70;;